createdAt,value
2018-03-08T00:04:43.408Z,0
2018-03-08T00:09:43.056Z,0
2018-03-08T00:14:43.374Z,0
2018-03-08T00:19:43.055Z,0
2018-03-08T00:24:43.113Z,0
2018-03-08T00:29:43.052Z,0
2018-03-08T00:34:43.190Z,0
2018-03-08T00:39:43.225Z,0
2018-03-08T00:44:43.082Z,0
2018-03-08T00:49:43.196Z,0
2018-03-08T00:54:43.150Z,0
2018-03-08T00:59:43.211Z,0
2018-03-08T01:04:43.260Z,0
2018-03-08T01:09:43.048Z,0
2018-03-08T01:14:43.351Z,0
2018-03-08T01:19:43.007Z,0
2018-03-08T01:24:43.219Z,0
2018-03-08T01:29:43.075Z,0
2018-03-08T01:34:43.008Z,0
2018-03-08T01:39:42.911Z,0
2018-03-08T01:44:43.052Z,0
2018-03-08T01:49:43.058Z,0
2018-03-08T01:54:43.046Z,0
2018-03-08T01:59:43.057Z,0
2018-03-08T02:04:42.966Z,0
2018-03-08T02:09:42.979Z,0
2018-03-08T02:14:42.958Z,0
2018-03-08T02:19:43.013Z,0
2018-03-08T02:24:42.955Z,0
2018-03-08T02:29:42.797Z,0
2018-03-08T02:34:42.859Z,0
2018-03-08T02:39:42.959Z,0
2018-03-08T02:44:42.897Z,0
2018-03-08T02:49:42.790Z,0
2018-03-08T02:54:42.934Z,0
2018-03-08T02:59:43.010Z,0
2018-03-08T03:04:42.889Z,0
2018-03-08T03:09:43.055Z,0
2018-03-08T03:14:43.135Z,0
2018-03-08T03:19:42.959Z,0
2018-03-08T03:24:43.139Z,0
2018-03-08T03:29:43.126Z,0
2018-03-08T03:34:42.973Z,0
2018-03-08T03:39:43.071Z,0
2018-03-08T03:44:43.100Z,0
2018-03-08T03:49:42.780Z,0
2018-03-08T03:54:43.022Z,0
2018-03-08T03:59:42.878Z,0
2018-03-08T04:04:43.003Z,0
2018-03-08T04:09:42.928Z,0
2018-03-08T04:14:42.660Z,0
2018-03-08T04:19:43.004Z,0
2018-03-08T04:24:42.636Z,0
2018-03-08T04:29:42.694Z,0
2018-03-08T04:34:42.784Z,0
2018-03-08T04:39:42.915Z,0
2018-03-08T04:44:42.827Z,0
2018-03-08T04:49:42.748Z,0
2018-03-08T04:54:42.784Z,0
2018-03-08T04:59:43.126Z,0
2018-03-08T05:04:42.751Z,0
2018-03-08T05:09:42.868Z,0
2018-03-08T05:14:42.641Z,0
2018-03-08T05:19:42.633Z,0
2018-03-08T05:24:42.762Z,0
2018-03-08T05:29:42.686Z,0
2018-03-08T05:34:42.931Z,0
2018-03-08T05:39:42.690Z,0
2018-03-08T05:44:42.529Z,0
2018-03-08T05:49:42.595Z,0.2
2018-03-08T05:54:42.833Z,0.6
2018-03-08T05:59:42.505Z,1.4
2018-03-08T06:04:42.759Z,2.6
2018-03-08T06:09:42.587Z,4.3
2018-03-08T06:14:42.830Z,5.8
2018-03-08T06:19:42.525Z,7
2018-03-08T06:24:42.818Z,8.8
2018-03-08T06:29:42.661Z,16.3
2018-03-08T06:34:42.672Z,23.7
2018-03-08T06:39:42.722Z,28.3
2018-03-08T06:44:42.529Z,31.2
2018-03-08T06:49:42.786Z,37.1
2018-03-08T06:54:42.548Z,47.5
2018-03-08T06:59:42.659Z,83.3
2018-03-08T07:04:42.515Z,77.5
2018-03-08T07:09:42.532Z,74.6
2018-03-08T07:14:42.545Z,108.8
2018-03-08T07:19:42.808Z,119.6
2018-03-08T07:24:42.706Z,124.2
2018-03-08T07:29:42.437Z,130.8
2018-03-08T07:34:42.553Z,134.6
2018-03-08T07:39:42.718Z,180.4
2018-03-08T07:44:42.594Z,200.8
2018-03-08T07:49:42.395Z,199.6
2018-03-08T07:54:42.443Z,174.2
2018-03-08T07:59:42.569Z,222.1
2018-03-08T08:04:42.491Z,154.6
2018-03-08T08:09:42.647Z,160.4
2018-03-08T08:14:42.583Z,147.5
2018-03-08T08:19:42.499Z,186.3
2018-03-08T08:24:42.405Z,208.8
2018-03-08T08:29:42.331Z,204.6
2018-03-08T08:34:42.392Z,188.8
2018-03-08T08:39:42.507Z,188.8
2018-03-08T08:44:42.259Z,195.4
2018-03-08T08:49:42.364Z,174.6
2018-03-08T08:54:42.370Z,123.7
2018-03-08T08:59:42.496Z,134.6
2018-03-08T09:04:42.429Z,91.2
2018-03-08T09:09:42.557Z,154.6
2018-03-08T09:14:42.482Z,122.9
2018-03-08T09:19:42.265Z,107.9
2018-03-08T09:24:42.436Z,88.3
2018-03-08T09:29:42.344Z,100.8
2018-03-08T09:34:42.319Z,65.4
2018-03-08T09:39:42.212Z,128.3
2018-03-08T09:44:42.441Z,165
2018-03-08T09:49:42.137Z,141.3
2018-03-08T09:54:42.461Z,144.2
2018-03-08T09:59:42.595Z,113.3
2018-03-08T10:04:42.118Z,51.7
2018-03-08T10:09:42.177Z,53.3
2018-03-08T10:14:42.281Z,37.9
2018-03-08T10:19:42.510Z,59.6
2018-03-08T10:24:42.475Z,57.1
2018-03-08T10:29:42.306Z,87.1
2018-03-08T10:34:42.535Z,117.9
2018-03-08T10:39:42.312Z,100
2018-03-08T10:44:42.306Z,75.4
2018-03-08T10:49:42.329Z,80.4
2018-03-08T10:54:42.125Z,65.4
2018-03-08T10:59:42.058Z,66.7
2018-03-08T11:04:42.184Z,80.8
2018-03-08T11:09:42.137Z,96.7
2018-03-08T11:14:42.009Z,104.6
2018-03-08T11:19:42.387Z,86.7
2018-03-08T11:24:42.189Z,81.2
2018-03-08T11:29:42.067Z,122.9
2018-03-08T11:34:42.509Z,147.9
2018-03-08T11:39:42.187Z,133.3
2018-03-08T11:44:42.026Z,116.3
2018-03-08T11:49:42.035Z,67.5
2018-03-08T11:54:42.049Z,85.8
2018-03-08T11:59:42.108Z,141.3
2018-03-08T12:04:42.083Z,137.9
2018-03-08T12:09:41.977Z,206.7
2018-03-08T12:14:42.187Z,252.9
2018-03-08T12:19:42.342Z,301.7
2018-03-08T12:24:42.305Z,234.6
2018-03-08T12:29:42.200Z,197.1
2018-03-08T12:34:42.177Z,97.5
2018-03-08T12:39:42.008Z,115.8
2018-03-08T12:44:41.999Z,170.4
2018-03-08T12:49:41.945Z,179.6
2018-03-08T12:54:42.159Z,111.2
2018-03-08T12:59:42.219Z,873.3
2018-03-08T13:04:41.868Z,1066.7
2018-03-08T13:09:42.115Z,721.2
2018-03-08T13:14:42.039Z,627.5
2018-03-08T13:19:42.243Z,2006.7
2018-03-08T13:24:42.071Z,399.6
2018-03-08T13:29:42.185Z,1603.7
2018-03-08T13:34:42.391Z,437.1
2018-03-08T13:39:41.917Z,489.2
2018-03-08T13:44:42.122Z,279.6
2018-03-08T13:49:41.828Z,552.1
2018-03-08T13:54:42.227Z,480.4
2018-03-08T13:59:41.817Z,254.2
2018-03-08T14:04:41.846Z,135.8
2018-03-08T14:09:42.071Z,146.3
2018-03-08T14:14:42.103Z,347.1
2018-03-08T14:19:41.868Z,192.5
2018-03-08T14:24:42.922Z,339.6
2018-03-08T14:29:41.762Z,603.7
2018-03-08T14:34:41.928Z,534.2
2018-03-08T14:39:41.894Z,229.6
2018-03-08T14:44:42.070Z,236.2
2018-03-08T14:49:41.961Z,453.3
2018-03-08T14:54:41.736Z,149.2
2018-03-08T14:59:41.951Z,88.3
2018-03-08T15:04:42.119Z,67.9
2018-03-08T15:09:42.010Z,204.2
2018-03-08T15:14:42.119Z,191.3
2018-03-08T15:19:41.835Z,266.7
2018-03-08T15:24:41.893Z,175.4
2018-03-08T15:29:41.910Z,145.4
2018-03-08T15:34:41.826Z,62.1
2018-03-08T15:39:41.741Z,85.4
2018-03-08T15:44:41.820Z,127.5
2018-03-08T15:49:42.067Z,109.2
2018-03-08T15:54:41.902Z,62.9
2018-03-08T15:59:41.775Z,58.3
2018-03-08T16:04:41.708Z,41.7
2018-03-08T16:09:41.758Z,37.5
2018-03-08T16:14:41.947Z,48.3
2018-03-08T16:19:42.098Z,70
2018-03-08T16:24:42.025Z,68.7
2018-03-08T16:29:41.788Z,63.3
2018-03-08T16:34:41.924Z,71.7
2018-03-08T16:39:41.743Z,48.7
2018-03-08T16:44:41.816Z,30.8
2018-03-08T16:49:41.893Z,11.7
2018-03-08T16:54:41.919Z,10.3
2018-03-08T16:59:41.607Z,6.5
2018-03-08T17:04:41.919Z,7.2
2018-03-08T17:09:41.937Z,6.8
2018-03-08T17:14:41.902Z,1.6
2018-03-08T17:19:41.761Z,4.4
2018-03-08T17:24:41.704Z,2.8
2018-03-08T17:29:41.846Z,3.1
2018-03-08T17:34:41.553Z,1.2
2018-03-08T17:39:41.654Z,0.6
2018-03-08T17:44:41.676Z,0.1
2018-03-08T17:49:41.648Z,0
2018-03-08T17:54:41.577Z,0
2018-03-08T17:59:41.842Z,0
2018-03-08T18:04:41.617Z,0
2018-03-08T18:09:41.684Z,0
2018-03-08T18:14:41.801Z,0
2018-03-08T18:19:41.660Z,0
2018-03-08T18:24:41.860Z,0
2018-03-08T18:29:41.484Z,0
2018-03-08T18:34:41.482Z,0
2018-03-08T18:39:41.951Z,0
2018-03-08T18:44:41.644Z,0
2018-03-08T18:49:41.390Z,0
2018-03-08T18:54:41.490Z,0
2018-03-08T18:59:41.636Z,0
2018-03-08T19:04:41.553Z,0
2018-03-08T19:09:41.422Z,0
2018-03-08T19:14:41.835Z,0
2018-03-08T19:19:41.499Z,0
2018-03-08T19:24:41.443Z,0
2018-03-08T19:29:41.538Z,0
2018-03-08T19:34:41.898Z,0
2018-03-08T19:39:41.541Z,0
2018-03-08T19:44:41.878Z,0
2018-03-08T19:49:41.485Z,0
2018-03-08T19:54:41.299Z,0
2018-03-08T19:59:41.690Z,0
2018-03-08T20:04:41.257Z,0
2018-03-08T20:09:41.643Z,0
2018-03-08T20:14:42.506Z,0
2018-03-08T20:19:41.462Z,0
2018-03-08T20:24:41.588Z,0
2018-03-08T20:29:41.409Z,0
2018-03-08T20:34:41.593Z,0
2018-03-08T20:39:41.428Z,0
2018-03-08T20:44:41.361Z,0
2018-03-08T20:49:41.353Z,0
2018-03-08T20:54:41.203Z,0
2018-03-08T20:59:41.798Z,0
2018-03-08T21:04:41.204Z,0
2018-03-08T21:09:41.586Z,0
2018-03-08T21:14:41.520Z,0
2018-03-08T21:19:41.454Z,0
2018-03-08T21:24:41.447Z,0
2018-03-08T21:29:41.453Z,0
2018-03-08T21:34:41.234Z,0
2018-03-08T21:39:41.241Z,0
2018-03-08T21:44:41.384Z,0
2018-03-08T21:49:41.475Z,0
2018-03-08T21:54:41.692Z,0
2018-03-08T21:59:41.173Z,0
2018-03-08T22:04:41.183Z,0
2018-03-08T22:09:41.382Z,0
2018-03-08T22:14:41.511Z,0
2018-03-08T22:19:41.577Z,0
2018-03-08T22:24:41.489Z,0
2018-03-08T22:29:41.369Z,0
2018-03-08T22:34:41.161Z,0
2018-03-08T22:39:41.497Z,0
2018-03-08T22:44:41.348Z,0
2018-03-08T22:49:41.327Z,0
2018-03-08T22:54:41.314Z,0
2018-03-08T22:59:41.129Z,0
2018-03-08T23:04:41.823Z,0
2018-03-08T23:09:41.393Z,0
2018-03-08T23:14:41.072Z,0
2018-03-08T23:19:41.308Z,0
2018-03-08T23:24:41.282Z,0
2018-03-08T23:29:41.374Z,0
2018-03-08T23:34:41.261Z,0
2018-03-08T23:39:41.299Z,0
2018-03-08T23:44:41.181Z,0
2018-03-08T23:49:41.139Z,0
2018-03-08T23:54:41.295Z,0
2018-03-08T23:59:41.360Z,0
